sensor_id;sensor_type;location;lat;lon;timestamp;pressure;altitude;pressure_sealevel;temperature;humidity
23953;BME280;12163;49.316;6.092;2023-02-10T00:01:21;101394.41;;;-0.61;64.40
23953;BME280;12163;49.316;6.092;2023-02-10T00:03:48;101394.41;;;-0.61;64.29
23953;BME280;12163;49.316;6.092;2023-02-10T00:06:16;101392.91;;;-0.63;64.32
23953;BME280;12163;49.316;6.092;2023-02-10T00:08:52;101404.72;;;-0.66;64.69
23953;BME280;12163;49.316;6.092;2023-02-10T00:11:19;101394.09;;;-0.66;64.55
23953;BME280;12163;49.316;6.092;2023-02-10T00:13:45;101399.41;;;-0.66;64.64
23953;BME280;12163;49.316;6.092;2023-02-10T00:16:14;101400.06;;;-0.64;65.03
23953;BME280;12163;49.316;6.092;2023-02-10T00:18:41;101400.72;;;-0.62;64.97
23953;BME280;12163;49.316;6.092;2023-02-10T00:23:36;101395.72;;;-0.57;65.06
23953;BME280;12163;49.316;6.092;2023-02-10T00:26:07;101399.03;;;-0.55;65.06
23953;BME280;12163;49.316;6.092;2023-02-10T00:28:34;101404.34;;;-0.55;64.72
23953;BME280;12163;49.316;6.092;2023-02-10T00:31:09;101414.28;;;-0.57;65.09
23953;BME280;12163;49.316;6.092;2023-02-10T00:33:36;101401.69;;;-0.55;65.15
23953;BME280;12163;49.316;6.092;2023-02-10T00:36:04;101407.34;;;-0.58;64.77
23953;BME280;12163;49.316;6.092;2023-02-10T00:38:32;101404.50;;;-0.56;65.21
23953;BME280;12163;49.316;6.092;2023-02-10T00:41:14;101415.94;;;-0.56;65.42
23953;BME280;12163;49.316;6.092;2023-02-10T00:43:42;101419.25;;;-0.54;64.99
23953;BME280;12163;49.316;6.092;2023-02-10T00:46:15;101413.94;;;-0.54;64.97
23953;BME280;12163;49.316;6.092;2023-02-10T00:48:43;101421.25;;;-0.56;65.18
23953;BME280;12163;49.316;6.092;2023-02-10T00:51:11;101416.94;;;-0.57;65.46
23953;BME280;12163;49.316;6.092;2023-02-10T00:53:38;101423.06;;;-0.56;65.27
23953;BME280;12163;49.316;6.092;2023-02-10T00:56:05;101412.63;;;-0.58;65.04
23953;BME280;12163;49.316;6.092;2023-02-10T00:58:31;101425.22;;;-0.60;65.51
23953;BME280;12163;49.316;6.092;2023-02-10T01:00:58;101432.53;;;-0.62;65.46
23953;BME280;12163;49.316;6.092;2023-02-10T01:03:25;101435.19;;;-0.62;65.57
23953;BME280;12163;49.316;6.092;2023-02-10T01:05:51;101440.50;;;-0.62;65.48
23953;BME280;12163;49.316;6.092;2023-02-10T01:08:18;101441.81;;;-0.66;65.97
23953;BME280;12163;49.316;6.092;2023-02-10T01:10:45;101431.53;;;-0.69;65.82
23953;BME280;12163;49.316;6.092;2023-02-10T01:13:13;101428.88;;;-0.69;65.88
23953;BME280;12163;49.316;6.092;2023-02-10T01:15:45;101423.91;;;-0.72;66.16
23953;BME280;12163;49.316;6.092;2023-02-10T01:18:13;101429.22;;;-0.72;66.16
23953;BME280;12163;49.316;6.092;2023-02-10T01:20:40;101437.16;;;-0.72;66.08
23953;BME280;12163;49.316;6.092;2023-02-10T01:23:08;101442.47;;;-0.72;66.19
23953;BME280;12163;49.316;6.092;2023-02-10T01:25:36;101435.84;;;-0.76;65.96
23953;BME280;12163;49.316;6.092;2023-02-10T01:28:04;101433.53;;;-0.79;66.16
23953;BME280;12163;49.316;6.092;2023-02-10T01:30:31;101443.63;;;-0.82;66.55
23953;BME280;12163;49.316;6.092;2023-02-10T01:32:58;101439.50;;;-0.85;66.62
23953;BME280;12163;49.316;6.092;2023-02-10T01:35:24;101451.09;;;-0.86;66.60
23953;BME280;12163;49.316;6.092;2023-02-10T01:37:51;101449.44;;;-0.87;66.62
23953;BME280;12163;49.316;6.092;2023-02-10T01:40:18;101445.81;;;-0.86;66.70
23953;BME280;12163;49.316;6.092;2023-02-10T01:42:44;101454.75;;;-0.87;66.32
23953;BME280;12163;49.316;6.092;2023-02-10T01:45:22;101450.59;;;-0.89;66.65
23953;BME280;12163;49.316;6.092;2023-02-10T01:47:51;101448.09;;;-0.91;66.39
23953;BME280;12163;49.316;6.092;2023-02-10T01:50:23;101455.38;;;-0.93;66.83
23953;BME280;12163;49.316;6.092;2023-02-10T01:52:52;101452.06;;;-0.95;66.78
23953;BME280;12163;49.316;6.092;2023-02-10T01:55:23;101452.06;;;-0.95;66.63
23953;BME280;12163;49.316;6.092;2023-02-10T01:57:52;101458.22;;;-0.94;66.61
23953;BME280;12163;49.316;6.092;2023-02-10T02:00:21;101454.06;;;-0.97;66.54
23953;BME280;12163;49.316;6.092;2023-02-10T02:02:48;101453.56;;;-1.00;66.96
23953;BME280;12163;49.316;6.092;2023-02-10T02:08:02;101461.50;;;-1.08;66.99
23953;BME280;12163;49.316;6.092;2023-02-10T02:15:57;101456.69;;;-1.13;67.28
23953;BME280;12163;49.316;6.092;2023-02-10T02:18:36;101461.69;;;-1.10;67.63
23953;BME280;12163;49.316;6.092;2023-02-10T02:23:54;101466.00;;;-1.09;67.45
23953;BME280;12163;49.316;6.092;2023-02-10T02:32:18;101460.66;;;-1.17;67.41
23953;BME280;12163;49.316;6.092;2023-02-10T02:34:56;101459.19;;;-1.19;67.62
23953;BME280;12163;49.316;6.092;2023-02-10T02:37:36;101460.84;;;-1.18;68.07
23953;BME280;12163;49.316;6.092;2023-02-10T02:40:04;101455.22;;;-1.15;68.09
23953;BME280;12163;49.316;6.092;2023-02-10T02:42:32;101456.88;;;-1.14;67.82
23953;BME280;12163;49.316;6.092;2023-02-10T02:50:50;101467.13;;;-1.11;67.90
23953;BME280;12163;49.316;6.092;2023-02-10T02:53:39;101467.00;;;-1.10;67.74
23953;BME280;12163;49.316;6.092;2023-02-10T02:56:32;101471.78;;;-1.05;67.79
23953;BME280;12163;49.316;6.092;2023-02-10T03:01:55;101476.75;;;-1.02;68.15
23953;BME280;12163;49.316;6.092;2023-02-10T03:04:23;101473.59;;;-0.98;67.94
23953;BME280;12163;49.316;6.092;2023-02-10T03:06:53;101477.75;;;-0.95;68.36
23953;BME280;12163;49.316;6.092;2023-02-10T03:09:20;101471.28;;;-0.93;68.17
23953;BME280;12163;49.316;6.092;2023-02-10T03:11:46;101475.44;;;-0.90;67.89
23953;BME280;12163;49.316;6.092;2023-02-10T03:14:13;101476.94;;;-0.88;68.31
23953;BME280;12163;49.316;6.092;2023-02-10T03:16:40;101479.25;;;-0.85;67.83
23953;BME280;12163;49.316;6.092;2023-02-10T03:19:06;101479.25;;;-0.85;67.83
23953;BME280;12163;49.316;6.092;2023-02-10T03:21:33;101474.63;;;-0.83;68.13
23953;BME280;12163;49.316;6.092;2023-02-10T03:23:59;101478.59;;;-0.79;68.00
23953;BME280;12163;49.316;6.092;2023-02-10T03:26:28;101477.91;;;-0.73;68.41
23953;BME280;12163;49.316;6.092;2023-02-10T03:28:55;101473.94;;;-0.69;68.48
23953;BME280;12163;49.316;6.092;2023-02-10T03:31:22;101476.44;;;-0.67;67.92
23953;BME280;12163;49.316;6.092;2023-02-10T03:33:49;101481.72;;;-0.59;68.16
23953;BME280;12163;49.316;6.092;2023-02-10T03:36:16;101478.59;;;-0.55;68.23
23953;BME280;12163;49.316;6.092;2023-02-10T03:38:43;101478.09;;;-0.50;68.18
23953;BME280;12163;49.316;6.092;2023-02-10T03:41:10;101474.91;;;-0.46;67.81
23953;BME280;12163;49.316;6.092;2023-02-10T03:43:36;101482.22;;;-0.40;67.91
23953;BME280;12163;49.316;6.092;2023-02-10T03:46:04;101489.00;;;-0.37;68.21
23953;BME280;12163;49.316;6.092;2023-02-10T03:48:31;101485.84;;;-0.33;68.48
23953;BME280;12163;49.316;6.092;2023-02-10T03:50:59;101491.66;;;-0.29;68.17
23953;BME280;12163;49.316;6.092;2023-02-10T03:53:27;101492.13;;;-0.26;68.17
23953;BME280;12163;49.316;6.092;2023-02-10T03:55:53;101486.47;;;-0.23;68.05
23953;BME280;12163;49.316;6.092;2023-02-10T03:58:20;101485.31;;;-0.20;68.09
23953;BME280;12163;49.316;6.092;2023-02-10T04:00:47;101487.63;;;-0.17;68.20
23953;BME280;12163;49.316;6.092;2023-02-10T04:03:14;101483.81;;;-0.15;68.19
23953;BME280;12163;49.316;6.092;2023-02-10T04:05:41;101483.47;;;-0.12;67.97
23953;BME280;12163;49.316;6.092;2023-02-10T04:08:08;101488.28;;;-0.07;68.18
23953;BME280;12163;49.316;6.092;2023-02-10T04:10:35;101499.38;;;-0.04;68.37
23953;BME280;12163;49.316;6.092;2023-02-10T04:13:02;101498.88;;;0.00;67.97
23953;BME280;12163;49.316;6.092;2023-02-10T04:15:28;101501.03;;;0.05;67.92
23953;BME280;12163;49.316;6.092;2023-02-10T04:17:55;101502.34;;;0.09;68.58
23953;BME280;12163;49.316;6.092;2023-02-10T04:20:23;101508.97;;;0.13;68.35
23953;BME280;12163;49.316;6.092;2023-02-10T04:22:50;101504.97;;;0.17;67.79
23953;BME280;12163;49.316;6.092;2023-02-10T04:25:17;101509.91;;;0.20;67.82
23953;BME280;12163;49.316;6.092;2023-02-10T04:27:44;101507.91;;;0.22;68.01
23953;BME280;12163;49.316;6.092;2023-02-10T04:30:11;101514.56;;;0.26;67.87
23953;BME280;12163;49.316;6.092;2023-02-10T04:32:37;101512.56;;;0.28;67.98
23953;BME280;12163;49.316;6.092;2023-02-10T04:35:04;101517.53;;;0.31;67.99
23953;BME280;12163;49.316;6.092;2023-02-10T04:37:31;101518.19;;;0.33;67.72
23953;BME280;12163;49.316;6.092;2023-02-10T04:39:57;101510.88;;;0.35;67.76
23953;BME280;12163;49.316;6.092;2023-02-10T04:42:24;101524.16;;;0.35;67.90
23953;BME280;12163;49.316;6.092;2023-02-10T04:44:59;101529.13;;;0.38;67.95
23953;BME280;12163;49.316;6.092;2023-02-10T04:47:26;101532.06;;;0.43;67.82
23953;BME280;12163;49.316;6.092;2023-02-10T04:49:54;101538.22;;;0.43;68.09
23953;BME280;12163;49.316;6.092;2023-02-10T04:52:20;101534.41;;;0.46;67.97
23953;BME280;12163;49.316;6.092;2023-02-10T04:54:47;101545.34;;;0.51;68.09
23953;BME280;12163;49.316;6.092;2023-02-10T04:57:14;101535.19;;;0.54;67.95
23953;BME280;12163;49.316;6.092;2023-02-10T04:59:40;101546.28;;;0.58;67.87
23953;BME280;12163;49.316;6.092;2023-02-10T05:02:07;101554.91;;;0.60;67.99
23953;BME280;12163;49.316;6.092;2023-02-10T05:04:33;101553.75;;;0.62;67.87
23953;BME280;12163;49.316;6.092;2023-02-10T05:07:00;101550.25;;;0.62;67.51
23953;BME280;12163;49.316;6.092;2023-02-10T05:09:28;101551.91;;;0.63;67.86
23953;BME280;12163;49.316;6.092;2023-02-10T05:11:54;101543.94;;;0.63;67.82
23953;BME280;12163;49.316;6.092;2023-02-10T05:14:21;101549.09;;;0.64;67.63
23953;BME280;12163;49.316;6.092;2023-02-10T05:16:47;101551.41;;;0.67;67.89
23953;BME280;12163;49.316;6.092;2023-02-10T05:19:14;101542.09;;;0.71;67.81
23953;BME280;12163;49.316;6.092;2023-02-10T05:21:41;101542.94;;;0.72;67.84
23953;BME280;12163;49.316;6.092;2023-02-10T05:24:07;101534.13;;;0.71;67.79
23953;BME280;12163;49.316;6.092;2023-02-10T05:26:34;101537.63;;;0.72;67.72
23953;BME280;12163;49.316;6.092;2023-02-10T05:29:00;101523.69;;;0.70;67.77
23953;BME280;12163;49.316;6.092;2023-02-10T05:31:27;101526.97;;;0.72;67.98
23953;BME280;12163;49.316;6.092;2023-02-10T05:33:54;101538.91;;;0.76;68.03
23953;BME280;12163;49.316;6.092;2023-02-10T05:36:21;101538.56;;;0.79;67.68
23953;BME280;12163;49.316;6.092;2023-02-10T05:38:47;101539.06;;;0.82;67.94
23953;BME280;12163;49.316;6.092;2023-02-10T05:41:32;101537.84;;;0.85;67.82
23953;BME280;12163;49.316;6.092;2023-02-10T05:44:01;101536.03;;;0.85;67.52
23953;BME280;12163;49.316;6.092;2023-02-10T05:46:28;101532.53;;;0.85;67.64
23953;BME280;12163;49.316;6.092;2023-02-10T05:48:55;101541.16;;;0.87;67.82
23953;BME280;12163;49.316;6.092;2023-02-10T05:51:21;101545.84;;;0.85;67.58
23953;BME280;12163;49.316;6.092;2023-02-10T05:53:48;101542.50;;;0.91;67.86
23953;BME280;12163;49.316;6.092;2023-02-10T05:56:15;101545.19;;;1.95;71.25
23953;BME280;12163;49.316;6.092;2023-02-10T05:58:41;101536.41;;;3.44;70.76
23953;BME280;12163;49.316;6.092;2023-02-10T06:01:10;101526.97;;;4.58;66.58
23953;BME280;12163;49.316;6.092;2023-02-10T06:03:36;101526.97;;;4.58;62.69
23953;BME280;12163;49.316;6.092;2023-02-10T06:06:04;101536.16;;;4.15;61.28
23953;BME280;12163;49.316;6.092;2023-02-10T06:08:31;101536.53;;;3.57;61.51
23953;BME280;12163;49.316;6.092;2023-02-10T06:10:57;101537.66;;;3.06;61.84
23953;BME280;12163;49.316;6.092;2023-02-10T06:13:24;101543.72;;;2.65;62.56
23953;BME280;12163;49.316;6.092;2023-02-10T06:15:51;101543.53;;;2.37;63.42
23953;BME280;12163;49.316;6.092;2023-02-10T06:18:17;101539.78;;;2.17;63.78
23953;BME280;12163;49.316;6.092;2023-02-10T06:20:47;101539.28;;;1.99;63.98
23953;BME280;12163;49.316;6.092;2023-02-10T06:23:14;101534.41;;;1.88;64.22
23953;BME280;12163;49.316;6.092;2023-02-10T06:25:40;101547.16;;;1.78;64.86
23953;BME280;12163;49.316;6.092;2023-02-10T06:28:07;101538.22;;;1.71;64.78
23953;BME280;12163;49.316;6.092;2023-02-10T06:30:34;101539.97;;;1.64;65.01
23953;BME280;12163;49.316;6.092;2023-02-10T06:33:01;101538.03;;;1.59;65.10
23953;BME280;12163;49.316;6.092;2023-02-10T06:35:27;101531.38;;;1.55;65.18
23953;BME280;12163;49.316;6.092;2023-02-10T06:37:54;101539.09;;;1.50;65.56
23953;BME280;12163;49.316;6.092;2023-02-10T06:40:20;101541.28;;;1.46;65.74
23953;BME280;12163;49.316;6.092;2023-02-10T06:42:47;101546.78;;;1.45;65.84
23953;BME280;12163;49.316;6.092;2023-02-10T06:45:14;101559.44;;;1.43;66.29
23953;BME280;12163;49.316;6.092;2023-02-10T06:47:41;101559.78;;;1.40;65.88
23953;BME280;12163;49.316;6.092;2023-02-10T06:50:08;101561.16;;;1.36;66.04
23953;BME280;12163;49.316;6.092;2023-02-10T06:52:35;101570.19;;;1.27;66.51
23953;BME280;12163;49.316;6.092;2023-02-10T06:55:05;101576.56;;;1.18;66.80
23953;BME280;12163;49.316;6.092;2023-02-10T06:57:33;101575.25;;;1.14;66.73
23953;BME280;12163;49.316;6.092;2023-02-10T07:00:06;101580.56;;;1.14;67.01
23953;BME280;12163;49.316;6.092;2023-02-10T07:02:34;101581.88;;;1.18;67.34
23953;BME280;12163;49.316;6.092;2023-02-10T07:05:02;101591.00;;;1.23;67.24
23953;BME280;12163;49.316;6.092;2023-02-10T07:07:31;101587.78;;;1.28;67.30
23953;BME280;12163;49.316;6.092;2023-02-10T07:09:58;101596.06;;;1.33;67.52
23953;BME280;12163;49.316;6.092;2023-02-10T07:12:24;101599.69;;;1.40;67.53
23953;BME280;12163;49.316;6.092;2023-02-10T07:14:51;101598.63;;;1.49;67.69
23953;BME280;12163;49.316;6.092;2023-02-10T07:17:19;101597.56;;;1.58;67.78
23953;BME280;12163;49.316;6.092;2023-02-10T07:19:45;101594.56;;;1.61;67.61
23953;BME280;12163;49.316;6.092;2023-02-10T07:22:12;101594.19;;;1.63;67.54
23953;BME280;12163;49.316;6.092;2023-02-10T07:24:39;101589.34;;;1.67;68.10
23953;BME280;12163;49.316;6.092;2023-02-10T07:27:06;101587.78;;;1.72;67.64
23953;BME280;12163;49.316;6.092;2023-02-10T07:29:32;101586.09;;;1.79;68.00
23953;BME280;12163;49.316;6.092;2023-02-10T07:31:59;101587.19;;;1.85;67.81
23953;BME280;12163;49.316;6.092;2023-02-10T07:34:26;101577.84;;;1.89;67.73
23953;BME280;12163;49.316;6.092;2023-02-10T07:36:53;101592.97;;;1.88;67.81
23953;BME280;12163;49.316;6.092;2023-02-10T07:39:21;101591.34;;;1.87;67.73
23953;BME280;12163;49.316;6.092;2023-02-10T07:41:48;101589.31;;;1.89;67.89
23953;BME280;12163;49.316;6.092;2023-02-10T07:44:14;101592.63;;;1.91;67.58
23953;BME280;12163;49.316;6.092;2023-02-10T07:46:41;101594.75;;;1.96;67.40
23953;BME280;12163;49.316;6.092;2023-02-10T07:49:08;101598.06;;;1.98;67.17
23953;BME280;12163;49.316;6.092;2023-02-10T07:51:35;101597.88;;;1.99;67.30
23953;BME280;12163;49.316;6.092;2023-02-10T07:54:03;101604.88;;;2.00;67.09
23953;BME280;12163;49.316;6.092;2023-02-10T07:56:29;101607.16;;;2.03;66.94
23953;BME280;12163;49.316;6.092;2023-02-10T07:58:56;101597.81;;;2.07;67.04
23953;BME280;12163;49.316;6.092;2023-02-10T08:01:23;101609.59;;;2.13;67.12
23953;BME280;12163;49.316;6.092;2023-02-10T08:03:49;101614.34;;;2.17;67.03
23953;BME280;12163;49.316;6.092;2023-02-10T08:06:24;101612.81;;;2.23;67.07
23953;BME280;12163;49.316;6.092;2023-02-10T08:08:51;101619.69;;;2.32;66.70
23953;BME280;12163;49.316;6.092;2023-02-10T08:11:18;101613.81;;;2.36;66.62
23953;BME280;12163;49.316;6.092;2023-02-10T08:13:45;101623.31;;;2.39;66.67
23953;BME280;12163;49.316;6.092;2023-02-10T08:16:12;101613.09;;;2.42;66.41
23953;BME280;12163;49.316;6.092;2023-02-10T08:18:39;101612.75;;;2.45;66.52
23953;BME280;12163;49.316;6.092;2023-02-10T08:21:06;101612.19;;;2.50;66.39
23953;BME280;12163;49.316;6.092;2023-02-10T08:23:35;101599.31;;;2.53;65.97
23953;BME280;12163;49.316;6.092;2023-02-10T08:26:06;101607.59;;;2.58;66.07
23953;BME280;12163;49.316;6.092;2023-02-10T08:28:34;101613.03;;;2.65;65.96
23953;BME280;12163;49.316;6.092;2023-02-10T08:31:03;101611.47;;;2.70;66.11
23953;BME280;12163;49.316;6.092;2023-02-10T08:33:33;101620.53;;;2.76;65.90
23953;BME280;12163;49.316;6.092;2023-02-10T08:36:14;101616.50;;;2.80;65.83
23953;BME280;12163;49.316;6.092;2023-02-10T08:38:41;101622.66;;;2.80;65.89
23953;BME280;12163;49.316;6.092;2023-02-10T08:41:07;101619.34;;;2.78;65.59
23953;BME280;12163;49.316;6.092;2023-02-10T08:43:36;101631.31;;;2.82;66.06
23953;BME280;12163;49.316;6.092;2023-02-10T08:46:03;101618.06;;;2.89;65.97
23953;BME280;12163;49.316;6.092;2023-02-10T08:48:30;101620.63;;;2.97;65.65
23953;BME280;12163;49.316;6.092;2023-02-10T08:50:57;101629.34;;;3.05;65.30
23953;BME280;12163;49.316;6.092;2023-02-10T08:53:24;101622.28;;;3.12;65.30
23953;BME280;12163;49.316;6.092;2023-02-10T08:55:56;101622.31;;;3.19;65.12
23953;BME280;12163;49.316;6.092;2023-02-10T08:58:25;101616.69;;;3.28;65.24
23953;BME280;12163;49.316;6.092;2023-02-10T09:00:53;101622.75;;;3.36;64.88
23953;BME280;12163;49.316;6.092;2023-02-10T09:03:19;101617.31;;;3.44;64.85
23953;BME280;12163;49.316;6.092;2023-02-10T09:05:46;101613.69;;;3.52;64.58
23953;BME280;12163;49.316;6.092;2023-02-10T09:08:16;101608.41;;;3.58;64.33
23953;BME280;12163;49.316;6.092;2023-02-10T09:10:45;101616.25;;;3.60;64.12
23953;BME280;12163;49.316;6.092;2023-02-10T09:13:13;101621.59;;;3.60;63.75
23953;BME280;12163;49.316;6.092;2023-02-10T09:15:41;101620.56;;;3.61;63.80
23953;BME280;12163;49.316;6.092;2023-02-10T09:18:09;101621.59;;;3.60;63.54
23953;BME280;12163;49.316;6.092;2023-02-10T09:20:36;101626.53;;;3.63;63.77
23953;BME280;12163;49.316;6.092;2023-02-10T09:23:03;101626.78;;;3.68;63.57
23953;BME280;12163;49.316;6.092;2023-02-10T09:25:30;101624.56;;;3.71;63.69
23953;BME280;12163;49.316;6.092;2023-02-10T09:27:56;101633.66;;;3.77;63.71
23953;BME280;12163;49.316;6.092;2023-02-10T09:30:25;101636.22;;;3.85;63.56
23953;BME280;12163;49.316;6.092;2023-02-10T09:32:52;101633.00;;;3.96;63.26
23953;BME280;12163;49.316;6.092;2023-02-10T09:35:19;101630.47;;;4.09;63.06
23953;BME280;12163;49.316;6.092;2023-02-10T09:37:46;101634.25;;;4.21;62.78
23953;BME280;12163;49.316;6.092;2023-02-10T09:40:31;101640.88;;;4.25;62.49
23953;BME280;12163;49.316;6.092;2023-02-10T09:43:13;101630.19;;;4.25;62.31
23953;BME280;12163;49.316;6.092;2023-02-10T09:45:47;101631.00;;;4.25;61.88
23953;BME280;12163;49.316;6.092;2023-02-10T09:48:29;101634.94;;;4.29;61.97
23953;BME280;12163;49.316;6.092;2023-02-10T09:51:08;101629.41;;;4.31;61.66
23953;BME280;12163;49.316;6.092;2023-02-10T09:53:39;101633.78;;;4.38;60.99
23953;BME280;12163;49.316;6.092;2023-02-10T09:56:14;101637.91;;;4.41;60.97
23953;BME280;12163;49.316;6.092;2023-02-10T09:58:51;101631.41;;;4.50;61.20
23953;BME280;12163;49.316;6.092;2023-02-10T10:01:42;101632.72;;;4.60;61.10
23953;BME280;12163;49.316;6.092;2023-02-10T10:04:14;101641.00;;;4.72;60.96
23953;BME280;12163;49.316;6.092;2023-02-10T10:06:44;101636.75;;;4.84;60.81
23953;BME280;12163;49.316;6.092;2023-02-10T10:11:53;101644.91;;;5.09;60.33
23953;BME280;12163;49.316;6.092;2023-02-10T10:14:25;101637.56;;;5.24;59.78
23953;BME280;12163;49.316;6.092;2023-02-10T10:17:36;101648.72;;;5.34;59.93
23953;BME280;12163;49.316;6.092;2023-02-10T10:25:49;101644.47;;;5.53;58.95
23953;BME280;12163;49.316;6.092;2023-02-10T10:31:01;101647.38;;;5.64;58.68
23953;BME280;12163;49.316;6.092;2023-02-10T10:33:38;101633.56;;;5.67;58.68
23953;BME280;12163;49.316;6.092;2023-02-10T10:36:13;101640.38;;;5.76;58.53
23953;BME280;12163;49.316;6.092;2023-02-10T10:38:45;101637.34;;;5.86;58.18
23953;BME280;12163;49.316;6.092;2023-02-10T10:41:14;101634.25;;;5.95;58.45
23953;BME280;12163;49.316;6.092;2023-02-10T10:43:49;101636.34;;;6.06;58.34
23953;BME280;12163;49.316;6.092;2023-02-10T10:48:49;101638.63;;;6.09;56.70
23953;BME280;12163;49.316;6.092;2023-02-10T10:51:17;101639.84;;;6.13;56.89
23953;BME280;12163;49.316;6.092;2023-02-10T10:53:48;101632.84;;;6.25;57.25
23953;BME280;12163;49.316;6.092;2023-02-10T10:57:18;101627.06;;;6.35;56.61
23953;BME280;12163;49.316;6.092;2023-02-10T10:59:45;101623.75;;;6.39;56.62
23953;BME280;12163;49.316;6.092;2023-02-10T11:02:22;101625.41;;;6.40;56.50
23953;BME280;12163;49.316;6.092;2023-02-10T11:05:05;101627.28;;;6.33;56.89
23953;BME280;12163;49.316;6.092;2023-02-10T11:07:33;101635.31;;;6.33;56.80
23953;BME280;12163;49.316;6.092;2023-02-10T11:10:00;101625.41;;;6.40;57.86
23953;BME280;12163;49.316;6.092;2023-02-10T11:12:39;101631.78;;;6.52;57.33
23953;BME280;12163;49.316;6.092;2023-02-10T11:15:39;101624.59;;;6.46;57.86
23953;BME280;12163;49.316;6.092;2023-02-10T11:18:20;101627.03;;;6.41;58.48
23953;BME280;12163;49.316;6.092;2023-02-10T11:20:59;101626.66;;;6.38;58.68
23953;BME280;12163;49.316;6.092;2023-02-10T11:23:27;101622.94;;;6.32;59.50
23953;BME280;12163;49.316;6.092;2023-02-10T11:26:03;101620.06;;;6.34;59.40
23953;BME280;12163;49.316;6.092;2023-02-10T11:28:31;101625.41;;;6.40;59.57
23953;BME280;12163;49.316;6.092;2023-02-10T11:33:57;101619.63;;;6.43;59.75
23953;BME280;12163;49.316;6.092;2023-02-10T11:36:37;101618.81;;;6.49;59.73
23953;BME280;12163;49.316;6.092;2023-02-10T11:39:15;101626.44;;;6.52;59.23
23953;BME280;12163;49.316;6.092;2023-02-10T11:41:42;101628.50;;;6.50;59.15
23953;BME280;12163;49.316;6.092;2023-02-10T11:44:28;101633.66;;;6.45;59.04
23953;BME280;12163;49.316;6.092;2023-02-10T11:46:56;101634.91;;;6.49;59.14
23953;BME280;12163;49.316;6.092;2023-02-10T11:49:24;101634.91;;;6.49;58.73
23953;BME280;12163;49.316;6.092;2023-02-10T11:51:55;101636.53;;;6.44;58.73
23953;BME280;12163;49.316;6.092;2023-02-10T11:54:23;101628.69;;;6.42;59.13
23953;BME280;12163;49.316;6.092;2023-02-10T12:00:44;101619.59;;;6.56;59.95
23953;BME280;12163;49.316;6.092;2023-02-10T12:03:30;101614.25;;;6.63;59.65
23953;BME280;12163;49.316;6.092;2023-02-10T12:06:21;101601.25;;;6.66;59.72
23953;BME280;12163;49.316;6.092;2023-02-10T12:17:27;101598.06;;;6.82;59.39
23953;BME280;12163;49.316;6.092;2023-02-10T12:25:05;101597.69;;;6.78;59.76
23953;BME280;12163;49.316;6.092;2023-02-10T12:30:19;101609.16;;;6.98;59.95
23953;BME280;12163;49.316;6.092;2023-02-10T12:36:08;101598.22;;;7.00;59.55
23953;BME280;12163;49.316;6.092;2023-02-10T12:41:18;101598.44;;;6.98;60.07
23953;BME280;12163;49.316;6.092;2023-02-10T12:44:13;101601.34;;;6.97;59.73
23953;BME280;12163;49.316;6.092;2023-02-10T12:52:44;101593.28;;;6.97;60.39
23953;BME280;12163;49.316;6.092;2023-02-10T12:55:19;101596.38;;;7.00;60.53
23953;BME280;12163;49.316;6.092;2023-02-10T12:57:58;101599.63;;;7.09;60.52
23953;BME280;12163;49.316;6.092;2023-02-10T13:03:12;101592.13;;;7.24;59.88
23953;BME280;12163;49.316;6.092;2023-02-10T13:05:52;101591.88;;;7.32;59.62
23953;BME280;12163;49.316;6.092;2023-02-10T13:08:27;101594.16;;;7.35;59.10
23953;BME280;12163;49.316;6.092;2023-02-10T13:11:02;101598.50;;;7.36;59.20
23953;BME280;12163;49.316;6.092;2023-02-10T13:13:32;101592.28;;;7.35;59.99
23953;BME280;12163;49.316;6.092;2023-02-10T13:16:05;101590.38;;;7.42;59.40
23953;BME280;12163;49.316;6.092;2023-02-10T13:18:37;101581.69;;;7.47;59.05
23953;BME280;12163;49.316;6.092;2023-02-10T13:21:17;101573.63;;;7.47;58.82
23953;BME280;12163;49.316;6.092;2023-02-10T13:23:49;101574.03;;;7.50;59.46
23953;BME280;12163;49.316;6.092;2023-02-10T13:26:41;101575.44;;;7.53;59.15
23953;BME280;12163;49.316;6.092;2023-02-10T13:34:35;101576.34;;;7.40;59.76
23953;BME280;12163;49.316;6.092;2023-02-10T13:39:34;101576.09;;;7.48;60.03
23953;BME280;12163;49.316;6.092;2023-02-10T13:42:20;101565.97;;;7.50;60.17
23953;BME280;12163;49.316;6.092;2023-02-10T13:50:06;101571.66;;;7.60;59.48
23953;BME280;12163;49.316;6.092;2023-02-10T13:52:35;101569.41;;;7.57;60.06
23953;BME280;12163;49.316;6.092;2023-02-10T13:57:38;101573.78;;;7.52;60.28
23953;BME280;12163;49.316;6.092;2023-02-10T14:00:19;101561.41;;;7.51;60.19
23953;BME280;12163;49.316;6.092;2023-02-10T14:03:18;101562.25;;;7.45;60.19
23953;BME280;12163;49.316;6.092;2023-02-10T14:06:06;101555.69;;;7.41;60.52
23953;BME280;12163;49.316;6.092;2023-02-10T14:13:33;101552.28;;;7.52;60.57
23953;BME280;12163;49.316;6.092;2023-02-10T14:16:06;101554.75;;;7.60;60.27
23953;BME280;12163;49.316;6.092;2023-02-10T14:18:37;101548.50;;;7.66;60.45
23953;BME280;12163;49.316;6.092;2023-02-10T14:21:12;101549.09;;;7.68;59.95
23953;BME280;12163;49.316;6.092;2023-02-10T14:23:43;101549.69;;;7.70;59.69
23953;BME280;12163;49.316;6.092;2023-02-10T14:26:20;101543.44;;;7.76;60.39
23953;BME280;12163;49.316;6.092;2023-02-10T14:28:50;101539.47;;;7.85;59.97
23953;BME280;12163;49.316;6.092;2023-02-10T14:31:23;101534.69;;;7.87;60.24
23953;BME280;12163;49.316;6.092;2023-02-10T14:33:56;101532.59;;;7.89;59.59
23953;BME280;12163;49.316;6.092;2023-02-10T14:36:24;101532.75;;;7.94;59.21
23953;BME280;12163;49.316;6.092;2023-02-10T14:38:59;101530.94;;;7.88;59.14
23953;BME280;12163;49.316;6.092;2023-02-10T14:41:28;101528.91;;;7.83;59.24
23953;BME280;12163;49.316;6.092;2023-02-10T14:43:55;101528.97;;;7.77;59.07
23953;BME280;12163;49.316;6.092;2023-02-10T14:49:01;101510.03;;;8.14;58.98
23953;BME280;12163;49.316;6.092;2023-02-10T14:51:30;101517.19;;;8.44;58.56
23953;BME280;12163;49.316;6.092;2023-02-10T14:56:56;101511.28;;;9.19;56.48
23953;BME280;12163;49.316;6.092;2023-02-10T14:59:25;101513.69;;;9.50;55.45